Nearby METAR Reports

 

YBUD - Bundaberg, Australia
Distance from station: SSW 6km
Updated: 20/01/2022 00:00
Clear
Clear
 Wind from S
Wind: S 7 km/h
Temperature: 24°C
Dew Point: 21°C
Humidity: 83%
Barometer: 1012 hPa
Clouds: Clear
Visibility: 10 km
2022/01/19 14:00 YBUD 191400Z AUTO 18004KT 9999 // NCD 24/21 Q1012
YGLA - Gladstone, Australia
Distance from station: NW 159km
Updated: 20/01/2022 00:00
Partly cloudy
Partly cloudy
 Wind from S
Wind: S 6 km/h
Temperature: 24°C
Dew Point: 22°C
Humidity: 89%
Barometer: 1012 hPa
Clouds: Partly cloudy
Visibility: 10 km
Cloud details: Partly cloudy 914 m
2022/01/19 14:00 YGLA 191400Z AUTO 18003KT 9999 // SCT030 24/22 Q1012 RF00.0/001.0
YBRK - Rockhampton Airp, Australia
Distance from station: NW 252km
Updated: 20/01/2022 00:00
Clear
Clear
 Wind from ESE
Wind: ESE 11 km/h
Temperature: 25°C
Dew Point: 21°C
Humidity: 79%
Barometer: 1011 hPa
Clouds: Clear
Visibility: 10 km
2022/01/19 14:00 YBRK 191400Z AUTO 11006KT 9999 // NCD 25/21 Q1011
 
YBBN - Brisbane Intl Ar, Australia
Distance from station: SSE 292km
Updated: 20/01/2022 00:00
Overcast
Overcast
 Wind from SSW
Wind: SSW 9 km/h
Temperature: 23°C
Dew Point: 22°C
Humidity: 94%
Barometer: 1014 hPa
Clouds: Overcast
Visibility: 10 km
Cloud details: Mostly cloudy 1006 m
Overcast 1737 m
2022/01/19 14:00 YBBN 191400Z AUTO 20005KT 9999 // BKN033 OVC057 23/22 Q1014
YAMB - Amberley, Australia
Distance from station: S 312km
Updated: 20/01/2022 00:00
Overcast
Overcast
 Wind from SSW
Wind: SSW 13 km/h
Temperature: 23°C
Dew Point: 20°C
Humidity: 83%
Barometer: 1013 hPa
Clouds: Overcast
Visibility: 10 km
Cloud details: Mostly cloudy 1219 m
Overcast 1829 m
2022/01/19 14:00 YAMB 191400Z AUTO 20007KT 9999 // BKN040 OVC060 23/20 Q1013
YBCG - Coolangatta Aws, Australia
Distance from station: SSE 386km
Updated: 20/01/2022 00:00
Rain, Mostly cloudy
Rain, Mostly cloudy
 Wind from SSE
Wind: SSE 15 km/h
Temperature: 22°C
Dew Point: 21°C
Humidity: 94%
Barometer: 1014 hPa
Summary: Rain
Clouds: Mostly cloudy
Visibility: 4 km
Cloud details: Partly cloudy 244 m
Partly cloudy 335 m
Mostly cloudy 579 m
2022/01/19 14:00 YBCG 191400Z AUTO 15008KT 4000 RA SCT008 SCT011 BKN019 22/21 Q1014